Terminal Aerodrome Forecast
Issued by NWS Upton, NY

Home | Current Version | Previous Version | Text Only | Print | Product List | Glossary On
Versions: 1 2 3 4 5 6 7 8 9 10 11 12 13 14 15 16 17 18 19 20 21 22 23 24 25 26 27 28 29 30 31 32 33 34 35 36 37 38 39 40 41 42 43 44 45 46 47 48 49 50
000
FTUS41 KOKX 160536
TAFISP
TAF
KISP 160536Z 1606/1706 VRB03KT P6SM FEW250
     FM161100 24006KT P6SM SCT040
     FM161300 26010G17KT P6SM BKN040
     FM161600 27013G21KT P6SM SCT250
     FM161800 26013G21KT P6SM BKN040
     FM162000 26013G20KT P6SM SCT040 SCT250
     FM162300 28009KT P6SM SCT050
     FM170300 32009KT P6SM FEW250=

USA.gov is the U.S. government's official web portal to all federal, state and local government web resources and services.